Airfield :







YOU CAN JOIN US ON...

 
LOGIN :

Register | Disclaimer

   EN    FR    IT 

 









Legend :    VFR   Marginal VFR   IFR   Intensive IFR   Very Intensive IFR
Visi :
Ceiling :
>= 8 km
>= 3000ft
5 to 8 km
1000 to 3000 ft
1500m to 5 km
500 to 1000 ft
800 to 1500m
200 to 500 ft
< 800m
< 200 ft
Symbols :   Thunderstorms  Fog  Heavy snow  Heavy precipitations  Wind > 20 kt







- Airport Elevation : 110 ft
- IATA code : YFB


CYFB - Iqaluit

CURRENT METAR :
  • 211000Z 30025G33KT 30SM SCT025 BKN039 BKN061 04/M00 A2948 RMK SC4SC1SC2 SLP987

EXPIRED METARs :
  • 210946Z 30020G26KT 30SM SCT025 BKN039 BKN061 04/M00 A2948 RMK SC3SC2SC2 SLP986
  • 210900Z 30022G33KT 15SM -RA SCT027 OVC039 03/M00 A2947 RMK SC3SC5 SLP984
  • 210848Z 30024G32KT 15SM -RA FEW028 BKN040 OVC060 04/M00 A2947 RMK SC2SC5SC1 SLP984
  • 210800Z 30022G31KT 15SM FEW024 OVC054 04/M01 A2946 RMK SC1SC7 SLP981

TAF TAF CYFB
Valid from the 21 at 06:00 until the 22 at 06:00 UTC


210538Z 2106/2206 30025G35KT P6SM -RA FEW020 OVC040
TEMPO 2106/2112 BKN020 OVC040
FM211200 30025G35KT P6SM SCT015 BKN040
TEMPO 2112/2206 P6SM -RA BKN015 OVC040
BECMG 2122/2124 32015G25KT RMK NXT FCST BY 211200Z
No reported NOTAMs for that airfield.



MET'MAP, your aeronautical weather chart ! - Copyright ORBIFLY December 2007 - Disclaimer

ORBIFLY MET'MAP TEAM :

Programming & Development : Alexandra Zaïnal
Concept & Development : Baudouin d'Aumeries
Co-Development & Prog : Marc-Olivier Méhu
Technical & hardware support : Manuel Goepfert

Contact : metmap@orbifly.com




SOURCES & CREDITS :

   NOAA